Time;durP1;ratioP1;P1;durP2;ratioP2;P2;SDS_P1;SDS_P2;PMS_P1;PMS_P2;Temp;Humidity;BMP_temperature;BMP_pressure;BME280_temperature;BME280_humidity;BME280_pressure;Samples;Min_cycle;Max_cycle;Signal;HPM_P1;HPM_P2
2024/01/02 00:00:42;;;;;;;23.40;22.30;;;;;;;-141.02;100.00;46804.47;5113869;28;20194;-67
2024/01/02 00:03:09;;;;;;;22.90;21.80;;;;;;;-141.02;100.00;47088.94;5113443;28;20189;-67
2024/01/02 00:05:36;;;;;;;21.50;20.50;;;;;;;-141.02;100.00;47250.41;5113386;28;20288;-67
2024/01/02 00:08:04;;;;;;;21.60;20.60;;;;;;;-141.02;100.00;47619.50;5113290;28;20255;-67
2024/01/02 00:10:31;;;;;;;21.10;20.10;;;;;;;-141.02;100.00;47707.94;5113558;28;20634;-67
2024/01/02 00:12:58;;;;;;;21.00;20.10;;;;;;;-141.02;100.00;47727.16;5113128;28;20565;-67
2024/01/02 00:15:27;;;;;;;20.60;19.70;;;;;;;-141.02;100.00;47973.25;5113217;28;20647;-67
2024/01/02 00:17:54;;;;;;;20.53;19.63;;;;;;;-141.02;100.00;48223.22;5113970;28;20189;-67
2024/01/02 00:20:21;;;;;;;20.97;20.00;;;;;;;-141.02;100.00;48261.69;5113413;28;20219;-67
2024/01/02 00:22:48;;;;;;;20.90;19.90;;;;;;;-141.02;100.00;48507.81;5113027;28;20292;-67
2024/01/02 00:25:15;;;;;;;20.57;19.67;;;;;;;-141.02;100.00;48634.72;5113064;28;20195;-67
2024/01/02 00:27:42;;;;;;;20.30;19.40;;;;;;;-141.02;100.00;48392.44;5112951;28;20231;-67
2024/01/02 00:30:10;;;;;;;20.17;19.27;;;;;;;-141.02;100.00;48004.03;5113329;28;20276;-67
2024/01/02 00:32:38;;;;;;;20.30;19.40;;;;;;;-141.02;100.00;47442.66;5112935;28;20674;-67
2024/01/02 00:35:06;;;;;;;20.47;19.57;;;;;;;-141.02;100.00;46794.88;5112718;28;20280;-67
2024/01/02 00:37:33;;;;;;;21.97;20.97;;;;;;;-141.02;100.00;46285.56;5113141;28;20296;-67
2024/01/02 00:40:00;;;;;;;21.47;20.47;;;;;;;-141.02;100.00;45928.16;5112800;28;20730;-67
2024/01/02 00:42:27;;;;;;;22.07;21.07;;;;;;;-141.02;100.00;45653.38;5112749;28;20203;-67
2024/01/02 00:44:55;;;;;;;22.83;21.73;;;;;;;-141.02;100.00;45613.03;5113025;28;20197;-67
2024/01/02 00:47:22;;;;;;;23.20;22.10;;;;;;;-141.02;100.00;45697.56;5113027;28;20276;-67
2024/01/02 00:49:50;;;;;;;21.50;20.40;;;;;;;-141.02;100.00;45947.38;5112695;28;20203;-67
2024/01/02 00:52:17;;;;;;;22.70;21.60;;;;;;;-141.02;100.00;45832.06;5112934;28;20287;-67
2024/01/02 00:54:44;;;;;;;23.10;21.90;;;;;;;-141.02;100.00;45736.00;5112630;28;20215;-67
2024/01/02 00:57:11;;;;;;;22.70;21.60;;;;;;;-141.02;100.00;45664.91;5112824;28;20199;-67
2024/01/02 00:59:38;;;;;;;22.23;21.13;;;;;;;-141.02;100.00;45674.53;5112816;28;20201;-67
2024/01/02 01:02:05;;;;;;;21.30;20.30;;;;;;;-141.02;100.00;45834.00;5113145;28;20745;-67
2024/01/02 01:04:32;;;;;;;21.33;20.33;;;;;;;-141.02;100.00;46054.97;5112464;28;20615;-67
2024/01/02 01:07:01;;;;;;;23.53;22.33;;;;;;;-141.02;100.00;46241.38;5112421;28;20588;-67
2024/01/02 01:09:28;;;;;;;21.40;20.30;;;;;;;-141.02;100.00;46668.00;5112621;28;20237;-67
2024/01/02 01:11:55;;;;;;;21.10;20.10;;;;;;;-141.02;100.00;46908.25;5112443;28;20683;-67
2024/01/02 01:14:22;;;;;;;21.80;20.70;;;;;;;-141.02;100.00;47004.38;5112213;28;20271;-67
2024/01/02 01:16:49;;;;;;;20.77;19.77;;;;;;;-141.02;100.00;47135.06;5112642;28;20203;-67
2024/01/02 01:19:15;;;;;;;21.23;20.23;;;;;;;-141.02;100.00;47177.38;5112385;28;20197;-68
2024/01/02 01:21:42;;;;;;;21.50;20.40;;;;;;;-141.02;100.00;47552.22;5112554;28;20674;-67
2024/01/02 01:24:11;;;;;;;21.00;20.00;;;;;;;-141.02;100.00;47490.69;5112638;28;20292;-67
2024/01/02 01:26:38;;;;;;;21.33;20.23;;;;;;;-141.02;100.00;47784.84;5112178;28;20203;-67
2024/01/02 01:29:04;;;;;;;20.33;19.33;;;;;;;-141.02;100.00;48132.84;5112546;28;20591;-67
2024/01/02 01:31:31;;;;;;;20.17;19.17;;;;;;;-141.02;100.00;48292.44;5112288;28;20200;-67
2024/01/02 01:33:58;;;;;;;20.87;19.83;;;;;;;-141.02;100.00;48303.97;5112177;28;20197;-67
2024/01/02 01:36:26;;;;;;;20.20;19.20;;;;;;;-141.02;100.00;48773.19;5112479;28;20201;-67
2024/01/02 01:38:52;;;;;;;21.00;20.00;;;;;;;-141.02;100.00;49261.69;5112085;28;20204;-67
2024/01/02 01:41:21;;;;;;;20.90;19.90;;;;;;;-141.02;100.00;50081.19;5112481;28;20197;-67
2024/01/02 01:43:48;;;;;;;22.50;21.40;;;;;;;-141.02;100.00;50381.31;5112381;28;20567;-67
2024/01/02 01:46:16;;;;;;;21.30;20.30;;;;;;;-141.02;100.00;50558.31;5113834;28;20275;-67
2024/01/02 01:48:43;;;;;;;21.80;20.70;;;;;;;-141.02;100.00;50673.78;5115980;28;20228;-67
2024/01/02 01:51:10;;;;;;;21.73;20.63;;;;;;;-141.02;100.00;51262.63;5116343;28;20608;-67
2024/01/02 01:53:38;;;;;;;19.97;18.97;;;;;;;-141.02;100.00;51387.75;5116055;28;20193;-67
2024/01/02 01:56:05;;;;;;;22.03;20.93;;;;;;;-141.02;100.00;51397.38;5116344;28;20233;-67
2024/01/02 01:58:33;;;;;;;25.10;23.80;;;;;;;-141.02;100.00;51158.72;5115916;28;20284;-67
2024/01/02 02:01:01;;;;;;;23.43;22.23;;;;;;;-141.02;100.00;51470.50;5116179;28;20306;-67
2024/01/02 02:03:28;;;;;;;23.07;21.87;;;;;;;-141.02;100.00;51320.38;5116049;28;20203;-67
2024/01/02 02:05:56;;;;;;;23.50;22.20;;;;;;;-141.02;100.00;50408.25;5115743;28;20284;-67
2024/01/02 02:08:23;;;;;;;23.77;22.53;;;;;;;-141.02;100.00;50646.84;5115588;28;20221;-67
2024/01/02 02:10:50;;;;;;;24.50;23.20;;;;;;;-141.02;100.00;51482.03;5115689;28;20229;-67
2024/01/02 02:13:17;;;;;;;25.83;24.43;;;;;;;-141.02;100.00;51424.31;5115544;28;20221;-68
2024/01/02 02:15:48;;;;;;;26.70;25.30;;;;;;;-141.02;100.00;52128.81;5115861;28;20248;-68
2024/01/02 02:18:15;;;;;;;25.10;23.77;;;;;;;-141.02;100.00;52090.31;5115867;28;20189;-68
2024/01/02 02:20:42;;;;;;;23.87;22.57;;;;;;;-141.02;100.00;51645.66;5115774;28;20289;-67
2024/01/02 02:23:10;;;;;;;24.97;23.57;;;;;;;-141.02;100.00;51739.97;5115485;28;20668;-66
2024/01/02 02:25:38;;;;;;;25.30;23.90;;;;;;;-141.02;100.00;51424.31;5115657;28;20203;-70
2024/01/02 02:28:05;;;;;;;25.43;24.03;;;;;;;-141.02;100.00;51151.03;5115645;28;20274;-68
2024/01/02 02:30:32;;;;;;;26.23;24.77;;;;;;;-141.02;100.00;51320.38;5115736;28;20276;-70
2024/01/02 02:36:21;;;;;;;25.73;24.33;;;;;;;-141.02;100.00;51840.06;5115572;28;20233;-70
2024/01/02 02:38:49;;;;;;;24.50;23.20;;;;;;;-141.02;100.00;51886.25;5115131;28;20235;-70
2024/01/02 02:41:16;;;;;;;24.00;22.70;;;;;;;-141.02;100.00;51834.28;5115080;28;20283;-71
2024/01/02 02:43:43;;;;;;;24.63;23.33;;;;;;;-141.02;100.00;51886.25;5115385;28;20229;-69
2024/01/02 02:46:10;;;;;;;26.90;25.50;;;;;;;-141.02;100.00;51932.44;5115249;28;20259;-71
2024/01/02 02:48:37;;;;;;;24.37;23.07;;;;;;;-141.02;100.00;52311.69;5114846;28;20684;-68
2024/01/02 02:51:04;;;;;;;24.47;23.27;;;;;;;-141.02;100.00;52644.75;5114876;28;20189;-69
2024/01/02 02:53:31;;;;;;;23.00;21.90;;;;;;;-141.02;100.00;52873.88;5114797;28;20280;-73
2024/01/02 02:55:59;;;;;;;23.57;22.47;;;;;;;-141.02;100.00;52918.16;5114761;28;20204;-73
2024/01/02 02:58:26;;;;;;;24.40;23.20;;;;;;;-141.02;100.00;52814.19;5114736;28;20284;-70
2024/01/02 03:00:53;;;;;;;23.23;22.13;;;;;;;-141.02;100.00;53045.25;5114679;28;20574;-71
2024/01/02 03:03:20;;;;;;;23.07;21.97;;;;;;;-141.02;100.00;53135.75;5115001;28;20192;-70
2024/01/02 03:05:47;;;;;;;24.67;23.57;;;;;;;-141.02;100.00;53145.38;5114660;28;20189;-72
2024/01/02 03:08:14;;;;;;;20.03;19.13;;;;;;;-141.02;100.00;53239.72;5115842;28;20193;-74
2024/01/02 03:10:41;;;;;;;22.70;21.70;;;;;;;-141.02;100.00;53230.09;5114823;28;20197;-74
2024/01/02 03:13:09;;;;;;;23.77;22.77;;;;;;;-141.02;100.00;53156.94;5114737;28;20231;-70
2024/01/02 03:15:36;;;;;;;21.90;20.90;;;;;;;-141.02;100.00;53056.81;5114463;28;20181;-75
2024/01/02 03:18:04;;;;;;;22.93;21.93;;;;;;;-141.02;100.00;52895.06;5114385;28;20254;-73
2024/01/02 03:20:30;;;;;;;21.97;20.97;;;;;;;-141.02;100.00;52511.91;5114794;28;20197;-70
2024/01/02 03:22:57;;;;;;;21.23;20.33;;;;;;;-141.02;100.00;52640.91;5114597;28;20201;-71
2024/01/02 03:25:24;;;;;;;21.50;20.60;;;;;;;-141.02;100.00;53122.28;5114207;28;20247;-72
2024/01/02 03:27:51;;;;;;;21.20;20.30;;;;;;;-141.02;100.00;53692.28;5114104;28;20287;-71
2024/01/02 03:30:20;;;;;;;23.87;22.87;;;;;;;-141.02;100.00;53594.06;5114376;28;20597;-72
2024/01/02 03:32:47;;;;;;;21.40;20.50;;;;;;;-141.02;100.00;54520.56;5114364;28;20193;-71
2024/01/02 03:35:14;;;;;;;21.87;20.97;;;;;;;-141.02;100.00;55033.00;5114022;28;20701;-72
2024/01/02 03:37:41;;;;;;;23.67;22.67;;;;;;;-141.02;100.00;55526.28;5114002;28;20570;-70
2024/01/02 03:40:09;;;;;;;20.50;19.70;;;;;;;-141.02;100.00;55772.94;5113866;28;20250;-71
2024/01/02 03:42:36;;;;;;;21.67;20.77;;;;;;;-141.02;100.00;55772.94;5113944;28;20233;-71
2024/01/02 03:45:03;;;;;;;21.00;20.10;;;;;;;-141.02;100.00;56019.63;5114120;28;20189;-71
2024/01/02 03:47:32;;;;;;;21.30;20.40;;;;;;;-141.02;100.00;56266.31;5114130;28;20193;-71
2024/01/02 03:49:59;;;;;;;22.13;21.23;;;;;;;-141.02;100.00;56759.78;5113668;28;20726;-70
2024/01/02 03:52:26;;;;;;;21.13;20.23;;;;;;;-141.02;100.00;57006.53;5114020;28;20286;-70
2024/01/02 03:54:53;;;;;;;21.00;20.10;;;;;;;-141.02;100.00;57500.06;5113708;28;20254;-69
2024/01/02 03:57:19;;;;;;;21.50;20.60;;;;;;;-141.02;100.00;57500.06;5113775;28;20190;-69
2024/01/02 03:59:46;;;;;;;21.63;20.73;;;;;;;-141.02;100.00;57746.88;5114476;28;20197;-70
2024/01/02 04:02:13;;;;;;;20.33;19.53;;;;;;;-141.02;100.00;57993.72;5113512;28;20225;-69
2024/01/02 04:04:41;;;;;;;20.13;19.33;;;;;;;-141.02;100.00;58240.56;5113796;28;20235;-68
2024/01/02 04:07:08;;;;;;;20.93;20.03;;;;;;;-141.02;100.00;58240.56;5113758;28;20220;-68
2024/01/02 04:09:35;;;;;;;22.30;21.40;;;;;;;-141.02;100.00;58487.41;5112900;28;20312;-68
2024/01/02 04:12:02;;;;;;;22.50;21.60;;;;;;;-141.02;100.00;58734.28;5113582;28;20262;-68
2024/01/02 04:14:29;;;;;;;22.87;21.87;;;;;;;-141.02;100.00;58981.19;5113097;28;20225;-70
2024/01/02 04:16:56;;;;;;;21.20;20.30;;;;;;;-141.02;100.00;59228.09;5114402;28;20203;-71
2024/01/02 04:19:23;;;;;;;24.30;23.23;;;;;;;-141.02;100.00;59228.09;5113433;28;20272;-71
2024/01/02 04:21:52;;;;;;;23.27;22.27;;;;;;;-141.02;100.00;59475.03;5113709;28;20257;-74
2024/01/02 04:24:18;;;;;;;24.20;23.20;;;;;;;-141.02;100.00;59475.03;5113119;28;20284;-74
2024/01/02 04:26:46;;;;;;;23.10;22.10;;;;;;;-141.02;100.00;59721.97;5112980;28;20650;-74
2024/01/02 04:29:13;;;;;;;23.63;22.63;;;;;;;-141.02;100.00;60215.94;5113252;28;20229;-73
2024/01/02 04:31:39;;;;;;;23.77;22.77;;;;;;;-141.02;100.00;60462.94;5113228;28;20688;-74
2024/01/02 04:34:06;;;;;;;24.43;23.43;;;;;;;-141.02;100.00;60709.94;5112977;28;20229;-73
2024/01/02 04:36:34;;;;;;;24.57;23.47;;;;;;;-141.02;100.00;60462.94;5113208;28;20262;-73
2024/01/02 04:39:03;;;;;;;23.57;22.57;;;;;;;-141.02;100.00;60709.94;5113024;28;20216;-73
2024/01/02 04:41:30;;;;;;;25.03;23.93;;;;;;;-141.02;100.00;61204.03;5112787;28;20278;-74
2024/01/02 04:43:57;;;;;;;26.13;25.03;;;;;;;-141.02;100.00;61698.22;5112805;28;20780;-74
2024/01/02 04:46:24;;;;;;;24.50;23.40;;;;;;;-141.02;100.00;61945.31;5113084;28;20224;-73
2024/01/02 04:48:51;;;;;;;23.40;22.40;;;;;;;-141.02;100.00;61945.31;5112946;28;20224;-73
2024/01/02 04:51:18;;;;;;;24.63;23.57;;;;;;;-141.02;100.00;62439.59;5112916;28;20243;-70
2024/01/02 04:53:44;;;;;;;24.23;23.23;;;;;;;-141.02;100.00;62933.94;5112943;28;20641;-72
2024/01/02 04:56:13;;;;;;;24.03;23.03;;;;;;;-141.02;100.00;63428.38;5113152;28;20196;-70
2024/01/02 04:58:40;;;;;;;26.17;25.07;;;;;;;-141.02;100.00;63428.38;5113190;28;20600;-71
2024/01/02 05:01:07;;;;;;;22.57;21.67;;;;;;;-141.02;100.00;63922.84;5113101;28;20258;-70
2024/01/02 05:03:34;;;;;;;22.27;21.37;;;;;;;-141.02;100.00;64170.13;5112806;28;20284;-70
2024/01/02 05:06:01;;;;;;;21.77;20.87;;;;;;;-141.02;100.00;64664.72;5112744;28;20201;-71
2024/01/02 05:08:28;;;;;;;23.00;22.03;;;;;;;-141.02;100.00;65159.41;5112759;28;20225;-70
2024/01/02 05:10:55;;;;;;;23.70;22.70;;;;;;;-141.02;100.00;65406.75;5112383;28;20600;-69
2024/01/02 05:13:23;;;;;;;23.73;22.73;;;;;;;-141.02;100.00;65901.53;5112470;28;20229;-69
2024/01/02 05:15:50;;;;;;;23.47;22.47;;;;;;;-141.02;100.00;66396.38;5112412;28;20556;-69
2024/01/02 05:18:17;;;;;;;25.10;24.00;;;;;;;-141.02;100.00;66643.84;5112701;28;20276;-69
2024/01/02 05:20:44;;;;;;;25.67;24.57;;;;;;;-141.02;100.00;66643.84;5115007;28;20275;-69
2024/01/02 05:23:11;;;;;;;25.33;24.23;;;;;;;-141.02;100.00;66891.31;5116624;28;20283;-68
2024/01/02 05:25:37;;;;;;;26.27;25.17;;;;;;;-141.02;100.00;67386.28;5116849;28;20203;-69
2024/01/02 05:28:04;;;;;;;27.27;26.07;;;;;;;-141.02;100.00;67386.28;5116862;28;20635;-69
2024/01/02 05:30:33;;;;;;;47.10;44.73;;;;;;;-141.02;100.00;67633.81;5116376;28;20231;-69
2024/01/02 05:33:00;;;;;;;26.83;25.63;;;;;;;-141.02;100.00;67386.28;5116685;28;20199;-68
2024/01/02 05:35:27;;;;;;;26.50;25.33;;;;;;;-141.02;100.00;67633.81;5116454;28;20197;-69
2024/01/02 05:37:53;;;;;;;24.23;23.23;;;;;;;-141.02;100.00;67386.28;5116606;28;20193;-69
2024/01/02 05:40:20;;;;;;;23.80;22.80;;;;;;;-141.02;100.00;67138.78;5116857;28;20211;-68
2024/01/02 05:42:47;;;;;;;21.90;21.00;;;;;;;-141.02;100.00;67138.78;5116672;28;20193;-69
2024/01/02 05:45:14;;;;;;;22.83;21.90;;;;;;;-141.02;100.00;67386.28;5116439;28;20271;-69
2024/01/02 05:47:44;;;;;;;23.17;22.17;;;;;;;-141.02;100.00;67138.78;5116130;28;20197;-68
2024/01/02 05:50:11;;;;;;;24.03;23.03;;;;;;;-141.02;100.00;67386.28;5116305;28;20294;-68
2024/01/02 05:52:39;;;;;;;21.67;20.77;;;;;;;-141.02;100.00;67138.78;5116040;28;20192;-68
2024/01/02 05:55:06;;;;;;;23.00;22.00;;;;;;;-141.02;100.00;66891.31;5115939;28;20651;-69
2024/01/02 05:57:33;;;;;;;20.87;20.07;;;;;;;-141.02;100.00;66643.84;5116241;28;20208;-68
2024/01/02 06:00:00;;;;;;;20.40;19.60;;;;;;;-141.02;100.00;66396.38;5115881;28;20203;-69
2024/01/02 06:02:27;;;;;;;19.13;18.43;;;;;;;-141.02;100.00;65901.53;5115825;28;20681;-68
2024/01/02 06:04:55;;;;;;;21.37;20.47;;;;;;;-141.02;100.00;65654.13;5115755;28;20199;-68
2024/01/02 06:07:22;;;;;;;19.53;18.73;;;;;;;-141.02;100.00;65406.75;5115996;28;20193;-68
2024/01/02 06:09:49;;;;;;;19.17;18.37;;;;;;;-141.02;100.00;65159.41;5115933;28;20235;-68
2024/01/02 06:12:16;;;;;;;19.70;18.90;;;;;;;-141.02;100.00;65159.41;5115685;28;20189;-67
2024/01/02 06:14:43;;;;;;;18.20;17.50;;;;;;;-141.02;100.00;65159.41;5115754;28;20307;-67
2024/01/02 06:17:11;;;;;;;17.33;16.63;;;;;;;-141.02;100.00;64912.06;5115919;28;20292;-67
2024/01/02 06:19:39;;;;;;;16.60;16.00;;;;;;;-141.02;100.00;64912.06;5115800;28;20258;-67
2024/01/02 06:22:07;;;;;;;16.87;16.27;;;;;;;-141.02;100.00;65159.41;5116101;28;20280;-67
2024/01/02 06:24:34;;;;;;;17.33;16.63;;;;;;;-141.02;100.00;65159.41;5115726;28;20250;-68
2024/01/02 06:27:01;;;;;;;18.70;17.90;;;;;;;-141.02;100.00;64912.06;5115640;28;20197;-68
2024/01/02 06:29:28;;;;;;;17.93;17.23;;;;;;;-141.02;100.00;64664.72;5115249;28;20260;-69
2024/01/02 06:31:55;;;;;;;18.10;17.40;;;;;;;-141.02;100.00;64170.13;5114445;28;20284;-68
2024/01/02 06:34:22;;;;;;;18.17;17.47;;;;;;;-141.02;100.00;64170.13;5115446;28;20289;-68
2024/01/02 06:36:49;;;;;;;17.53;16.83;;;;;;;-141.02;100.00;63922.84;5115134;28;20189;-68
2024/01/02 06:39:17;;;;;;;17.37;16.67;;;;;;;-141.02;100.00;63922.84;5115182;28;20566;-68
2024/01/02 06:41:44;;;;;;;18.10;17.30;;;;;;;-141.02;100.00;64170.13;5115450;28;20634;-69
2024/01/02 06:44:12;;;;;;;18.33;17.53;;;;;;;-141.02;100.00;64417.41;5115347;28;20290;-69
2024/01/02 06:46:39;;;;;;;17.60;16.90;;;;;;;-141.02;100.00;64417.41;5115290;28;20276;-68
2024/01/02 06:49:06;;;;;;;18.60;17.80;;;;;;;-141.02;100.00;65159.41;5115195;28;20289;-68
2024/01/02 06:51:33;;;;;;;18.40;17.67;;;;;;;-141.02;100.00;65159.41;5115245;28;20204;-68
2024/01/02 06:54:01;;;;;;;18.33;17.63;;;;;;;-141.02;100.00;65654.13;5115146;28;20194;-68
2024/01/02 06:56:30;;;;;;;18.27;17.57;;;;;;;-141.02;100.00;66396.38;5115107;27;20197;-68
2024/01/02 06:58:56;;;;;;;18.00;17.30;;;;;;;-141.02;100.00;66396.38;5115029;28;20276;-68
2024/01/02 07:01:23;;;;;;;19.87;19.07;;;;;;;-141.02;100.00;66891.31;5114958;28;20196;-68
2024/01/02 07:03:50;;;;;;;19.87;19.07;;;;;;;-141.02;100.00;67633.81;5114962;28;20200;-68
2024/01/02 07:06:17;;;;;;;19.97;19.17;;;;;;;-141.02;100.00;67881.38;5114581;28;20193;-67
2024/01/02 07:08:45;;;;;;;20.03;19.23;;;;;;;-141.02;100.00;68128.91;5114655;28;20578;-68
2024/01/02 07:11:12;;;;;;;21.10;20.27;;;;;;;-141.02;100.00;68624.09;5114724;28;20251;-69
2024/01/02 07:13:40;;;;;;;21.27;20.37;;;;;;;-141.02;100.00;69119.34;5114743;28;20283;-68
2024/01/02 07:16:08;;;;;;;21.03;20.13;;;;;;;-141.02;100.00;69366.97;5114749;28;20275;-68
2024/01/02 07:18:35;;;;;;;19.80;19.00;;;;;;;-141.02;100.00;69614.66;5115032;28;20200;-68
2024/01/02 07:21:02;;;;;;;20.43;19.63;;;;;;;-141.02;100.00;70357.75;5114403;28;20197;-68
2024/01/02 07:23:29;;;;;;;21.10;20.20;;;;;;;-141.02;100.00;70853.25;5114553;28;20189;-69
2024/01/02 07:25:56;;;;;;;19.57;18.77;;;;;;;-141.02;100.00;70853.25;5114772;28;20201;-68
2024/01/02 07:28:23;;;;;;;19.33;18.53;;;;;;;-141.02;100.00;70605.50;5114155;28;20391;-67
2024/01/02 07:30:51;;;;;;;18.43;17.73;;;;;;;-141.02;100.00;70357.75;5114309;28;20328;-68
2024/01/02 07:33:18;;;;;;;17.20;16.50;;;;;;;-141.02;100.00;70110.03;5114318;28;20722;-68
2024/01/02 07:35:45;;;;;;;18.00;17.30;;;;;;;-141.02;100.00;69614.66;5114130;28;20655;-68
2024/01/02 07:38:12;;;;;;;17.97;17.27;;;;;;;-141.02;100.00;69614.66;5113994;28;20203;-68
2024/01/02 07:40:39;;;;;;;17.87;17.17;;;;;;;-141.02;100.00;69119.34;5113980;28;20201;-67
2024/01/02 07:43:06;;;;;;;17.07;16.47;;;;;;;-141.02;100.00;68871.72;5112979;28;20280;-68
2024/01/02 07:45:33;;;;;;;16.93;16.33;;;;;;;-141.02;100.00;69366.97;5114757;28;20193;-67
2024/01/02 07:48:01;;;;;;;16.67;16.07;;;;;;;-141.02;100.00;69119.34;5114086;28;20199;-68
2024/01/02 07:50:28;;;;;;;18.00;17.30;;;;;;;-141.02;100.00;69366.97;5114006;28;20246;-68
2024/01/02 07:52:55;;;;;;;17.47;16.87;;;;;;;-141.02;100.00;68871.72;5114006;28;20283;-68
2024/01/02 07:55:22;;;;;;;16.90;16.30;;;;;;;-141.02;100.00;68624.09;5113621;28;20197;-68
2024/01/02 07:57:49;;;;;;;17.07;16.47;;;;;;;-141.02;100.00;68871.72;5113565;28;20199;-68
2024/01/02 08:00:17;;;;;;;17.57;16.87;;;;;;;-141.02;100.00;69614.66;5113539;28;20733;-68
2024/01/02 08:02:44;;;;;;;15.73;15.13;;;;;;;-141.02;100.00;70853.25;5113550;28;20683;-68
2024/01/02 08:05:12;;;;;;;16.20;15.60;;;;;;;-141.02;100.00;72340.16;5113445;28;20726;-68
2024/01/02 08:07:39;;;;;;;19.13;18.37;;;;;;;-141.02;100.00;72835.97;5113735;28;20193;-67
2024/01/02 08:10:08;;;;;;;18.83;18.13;;;;;;;-141.02;100.00;73579.75;5113824;28;20227;-67
2024/01/02 08:12:35;;;;;;;18.50;17.80;;;;;;;-141.02;100.00;73827.72;5113612;28;20660;-66
2024/01/02 08:15:02;;;;;;;17.80;17.17;;;;;;;-141.02;100.00;72835.97;5113237;28;20239;-67
2024/01/02 08:17:29;;;;;;;16.37;15.77;;;;;;;-141.02;100.00;72835.97;5113730;28;20197;-67
2024/01/02 08:19:56;;;;;;;17.20;16.50;;;;;;;-141.02;100.00;73579.75;5113591;28;20217;-67
2024/01/02 08:22:24;;;;;;;18.33;17.63;;;;;;;-141.02;100.00;74075.72;5113368;28;20197;-66
2024/01/02 08:24:51;;;;;;;16.73;16.13;;;;;;;-141.02;100.00;73579.75;5113360;28;20274;-66
2024/01/02 08:27:19;;;;;;;19.87;19.07;;;;;;;-141.02;100.00;73827.72;5113085;28;20655;-67
2024/01/02 08:29:46;;;;;;;19.73;18.93;;;;;;;-141.02;100.00;74075.72;5112898;28;20201;-66
2024/01/02 08:32:12;;;;;;;18.30;17.60;;;;;;;-141.02;100.00;74075.72;5113299;28;20204;-67
2024/01/02 08:34:40;;;;;;;18.57;17.87;;;;;;;-141.02;100.00;75067.88;5113215;28;20192;-66
2024/01/02 08:37:07;;;;;;;16.63;16.03;;;;;;;-141.02;100.00;75067.88;5113221;28;20216;-66
2024/01/02 08:39:36;;;;;;;17.70;17.07;;;;;;;-141.02;100.00;75315.94;5113094;28;20197;-66
2024/01/02 08:42:03;;;;;;;15.20;14.70;;;;;;;-141.02;100.00;74571.75;5113144;28;20196;-68
2024/01/02 08:44:30;;;;;;;16.37;15.77;;;;;;;-141.02;100.00;73827.72;5113269;28;20204;-66
2024/01/02 08:46:57;;;;;;;17.17;16.53;;;;;;;-141.02;100.00;71844.47;5113031;28;20201;-67
2024/01/02 08:49:24;;;;;;;18.70;17.90;;;;;;;-141.02;100.00;69862.34;5112929;28;20203;-67
2024/01/02 08:51:51;;;;;;;18.50;17.80;;;;;;;-141.02;100.00;68624.09;5112914;28;20228;-66
2024/01/02 08:54:18;;;;;;;19.40;18.60;;;;;;;-141.02;100.00;67633.81;5112625;28;20222;-66
2024/01/02 08:56:46;;;;;;;20.70;19.80;;;;;;;-141.02;100.00;66891.31;5112626;28;20193;-67
2024/01/02 08:59:13;;;;;;;21.73;20.83;;;;;;;-141.02;100.00;66148.94;5112883;28;20193;-66
2024/01/02 09:01:40;;;;;;;21.77;20.77;;;;;;;-141.02;100.00;66148.94;5112597;28;20203;-66
2024/01/02 09:04:07;;;;;;;20.70;19.80;;;;;;;-141.02;100.00;66643.84;5112843;28;20205;-66
2024/01/02 09:06:34;;;;;;;20.37;19.47;;;;;;;-141.02;100.00;67138.78;5112808;28;20196;-66
2024/01/02 09:09:01;;;;;;;19.43;18.63;;;;;;;-141.02;100.00;65406.75;5113082;28;20199;-67
2024/01/02 09:11:27;;;;;;;21.40;20.40;;;;;;;-141.02;100.00;62933.94;5112353;28;20320;-69
2024/01/02 09:13:56;;;;;;;22.10;21.10;;;;;;;-141.02;100.00;62933.94;5112407;28;20228;-67
2024/01/02 09:16:30;;;;;;;21.07;20.17;;;;;;;-141.02;100.00;62933.94;5112717;28;20310;-66
2024/01/02 09:18:57;;;;;;;21.10;20.20;;;;;;;-141.02;100.00;62933.94;5112742;28;20203;-67
2024/01/02 09:21:24;;;;;;;21.00;20.10;;;;;;;-141.02;100.00;62686.75;5112628;28;20193;-67
2024/01/02 09:23:51;;;;;;;20.23;19.43;;;;;;;-141.02;100.00;61945.31;5112631;28;20197;-67
2024/01/02 09:26:20;;;;;;;19.30;18.50;;;;;;;-141.02;100.00;62933.94;5112343;28;20280;-67
2024/01/02 09:28:47;;;;;;;16.77;16.17;;;;;;;-141.02;100.00;62192.44;5112581;28;20567;-67
2024/01/02 09:31:16;;;;;;;17.03;16.33;;;;;;;-141.02;100.00;63181.16;5112150;28;20728;-67
2024/01/02 09:33:44;;;;;;;15.90;15.30;;;;;;;-141.02;100.00;63428.38;5112441;28;20650;-66
2024/01/02 09:36:11;;;;;;;18.07;17.37;;;;;;;-141.02;100.00;63675.59;5112264;28;20286;-68
2024/01/02 09:38:39;;;;;;;16.20;15.60;;;;;;;-141.02;100.00;62439.59;5112232;28;20190;-67
2024/01/02 09:41:25;;;;;;;16.40;15.80;;;;;;;-141.02;100.00;62439.59;5112507;28;20580;-69
2024/01/02 09:44:07;;;;;;;16.77;16.17;;;;;;;-141.02;100.00;60957.00;5112372;28;20192;-67
2024/01/02 09:46:41;;;;;;;15.90;15.30;;;;;;;-141.02;100.00;59968.94;5112157;28;20720;-70
2024/01/02 09:49:26;;;;;;;16.10;15.50;;;;;;;-141.02;100.00;59475.03;5112108;28;20185;-67
2024/01/02 09:52:10;;;;;;;16.67;15.97;;;;;;;-141.02;100.00;59475.03;5112291;28;20217;-67
2024/01/02 09:54:49;;;;;;;17.13;16.43;;;;;;;-141.02;100.00;59475.03;5112359;28;20659;-68
2024/01/02 09:57:25;;;;;;;16.03;15.43;;;;;;;-141.02;100.00;59721.97;5112336;28;20193;-66
2024/01/02 10:00:04;;;;;;;15.90;15.30;;;;;;;-141.02;100.00;58487.41;5112342;28;20192;-66
2024/01/02 10:02:55;;;;;;;16.33;15.73;;;;;;;-141.02;100.00;57500.06;5112378;28;20619;-66
2024/01/02 10:05:35;;;;;;;16.13;15.43;;;;;;;-141.02;100.00;55171.75;5112277;28;20289;-66
2024/01/02 10:08:21;;;;;;;16.63;15.93;;;;;;;-141.02;100.00;54561.00;5115157;28;20275;-67
2024/01/02 10:10:57;;;;;;;15.83;15.23;;;;;;;-141.02;100.00;54308.66;5116012;28;20217;-67
2024/01/02 10:13:27;;;;;;;15.67;15.07;;;;;;;-141.02;100.00;55387.53;5115515;28;20229;-67
2024/01/02 10:16:04;;;;;;;14.93;14.43;;;;;;;-141.02;100.00;57673.63;5115995;28;20182;-69
2024/01/02 10:18:49;;;;;;;14.47;13.97;;;;;;;-141.02;100.00;55900.13;5116174;28;20181;-68
2024/01/02 10:21:26;;;;;;;14.27;13.77;;;;;;;-141.02;100.00;55279.63;5115856;28;20227;-68
2024/01/02 10:23:59;;;;;;;14.03;13.53;;;;;;;-141.02;100.00;55154.41;5115864;28;20189;-67
2024/01/02 10:26:30;;;;;;;14.30;13.80;;;;;;;-141.02;100.00;54324.06;5115427;28;20272;-68
2024/01/02 10:29:05;;;;;;;13.97;13.47;;;;;;;-141.02;100.00;56466.78;5115391;28;20185;-67
2024/01/02 10:31:40;;;;;;;13.80;13.30;;;;;;;-141.02;100.00;57154.97;5115247;28;20717;-69
2024/01/02 10:34:26;;;;;;;14.33;13.77;;;;;;;-141.02;100.00;54058.25;5115601;28;20238;-67
2024/01/02 10:36:57;;;;;;;15.10;14.50;;;;;;;-141.02;100.00;53804.00;5115611;28;20266;-68
2024/01/02 10:39:33;;;;;;;15.50;14.90;;;;;;;-141.02;100.00;50814.25;5115503;28;20195;-68
2024/01/02 10:42:18;;;;;;;15.80;15.10;;;;;;;-141.02;100.00;49896.50;5115097;28;20189;-68
2024/01/02 10:44:55;;;;;;;15.20;14.50;;;;;;;-141.02;100.00;49127.06;5115040;28;20189;-68
2024/01/02 10:47:33;;;;;;;15.40;14.80;;;;;;;-141.02;100.00;49984.97;5115074;28;20278;-69
2024/01/02 10:50:04;;;;;;;14.90;14.30;;;;;;;-141.02;100.00;50958.56;5115290;28;20208;-68
2024/01/02 10:52:42;;;;;;;16.10;15.40;;;;;;;-141.02;100.00;48461.66;5115147;28;20217;-70
2024/01/02 10:55:20;;;;;;;16.23;15.43;;;;;;;-141.02;100.00;48025.19;5114874;28;20196;-69
2024/01/02 10:57:56;;;;;;;16.37;15.57;;;;;;;-141.02;100.00;49377.09;5115183;28;20189;-70
2024/01/02 11:00:27;;;;;;;16.83;15.97;;;;;;;-141.02;100.00;49096.28;5115111;27;20193;-71
2024/01/02 11:03:00;;;;;;;16.63;15.83;;;;;;;-141.02;100.00;46789.09;5115074;28;20295;-70